createdAt,value
2022-08-17T00:01:55.811Z,60.28
2022-08-17T00:04:10.731Z,58.42
2022-08-17T00:06:25.660Z,62.05
2022-08-17T00:08:34.322Z,65.07
2022-08-17T00:10:38.877Z,69.13
2022-08-17T00:12:44.881Z,65.70
2022-08-17T00:14:47.910Z,71.82
2022-08-17T00:16:56.936Z,64.43
2022-08-17T00:19:08.335Z,66.90
2022-08-17T00:21:15.376Z,68.22
2022-08-17T00:23:28.096Z,73.47
2022-08-17T00:25:33.778Z,70.63
2022-08-17T00:27:36.977Z,72.47
2022-08-17T00:29:40.449Z,66.85
2022-08-17T00:31:51.021Z,74.53
2022-08-17T00:33:54.267Z,72.20
2022-08-17T00:35:58.889Z,72.75
2022-08-17T00:38:02.257Z,73.63
2022-08-17T00:40:08.963Z,69.57
2022-08-17T00:42:17.699Z,78.68
2022-08-17T00:44:21.249Z,86.15
2022-08-17T00:46:36.672Z,84.40
2022-08-17T00:48:41.580Z,87.75
2022-08-17T00:50:54.823Z,91.75
2022-08-17T00:52:59.170Z,98.20
2022-08-17T00:55:05.148Z,94.90
2022-08-17T00:57:13.058Z,89.78
2022-08-17T00:59:23.026Z,108.95
2022-08-17T01:01:26.603Z,102.75
2022-08-17T01:03:31.109Z,100.55
2022-08-17T01:05:42.733Z,98.97
2022-08-17T01:07:50.080Z,100.25
2022-08-17T01:09:53.369Z,99.50
2022-08-17T01:11:56.676Z,108.53
2022-08-17T01:14:00.641Z,101.70
2022-08-17T01:16:13.943Z,102.47
2022-08-17T01:18:18.005Z,105.80
2022-08-17T01:20:21.398Z,111.15
2022-08-17T01:22:27.469Z,105.65
2022-08-17T01:24:33.690Z,116.75
2022-08-17T01:26:40.582Z,118.95
2022-08-17T01:28:54.926Z,107.43
2022-08-17T01:31:01.538Z,98.90
2022-08-17T01:33:04.645Z,100.28
2022-08-17T01:35:08.977Z,107.97
2022-08-17T01:37:14.535Z,97.85
2022-08-17T01:39:28.878Z,105.63
2022-08-17T01:41:33.853Z,85.72
2022-08-17T01:43:44.169Z,73.93
2022-08-17T01:46:03.430Z,77.78
2022-08-17T01:48:07.701Z,72.95
2022-08-17T01:50:14.794Z,70.78
2022-08-17T01:52:19.020Z,69.00
2022-08-17T01:54:30.859Z,70.40
2022-08-17T01:56:38.444Z,63.20
2022-08-17T01:58:43.654Z,60.15
2022-08-17T02:01:00.014Z,51.97
2022-08-17T02:03:05.632Z,47.72
2022-08-17T02:05:16.814Z,47.90
2022-08-17T02:07:20.757Z,50.55
2022-08-17T02:09:32.018Z,52.83
2022-08-17T02:11:37.827Z,59.13
2022-08-17T02:13:42.087Z,66.50
2022-08-17T02:15:45.721Z,75.53
2022-08-17T02:17:49.091Z,81.03
2022-08-17T02:20:00.346Z,80.30
2022-08-17T02:22:05.150Z,75.82
2022-08-17T02:24:14.715Z,79.03
2022-08-17T02:26:23.950Z,78.60
2022-08-17T02:28:30.638Z,85.75
2022-08-17T02:30:59.531Z,81.00
2022-08-17T02:32:57.827Z,80.03
2022-08-17T02:35:01.777Z,74.13
2022-08-17T02:37:05.707Z,76.35
2022-08-17T02:39:12.485Z,71.55
2022-08-17T02:41:15.756Z,81.45
2022-08-17T02:43:21.467Z,63.42
2022-08-17T02:45:25.758Z,69.05
2022-08-17T02:47:32.716Z,71.32
2022-08-17T02:49:36.212Z,62.22
2022-08-17T02:51:43.051Z,65.00
2022-08-17T02:53:46.882Z,51.28
2022-08-17T02:55:50.570Z,49.75
2022-08-17T02:57:55.288Z,48.00
2022-08-17T02:59:59.822Z,45.35
2022-08-17T03:02:03.833Z,41.72
2022-08-17T03:04:14.669Z,34.33
2022-08-17T03:06:25.251Z,34.28
2022-08-17T03:08:28.905Z,34.97
2022-08-17T03:10:32.921Z,29.42
2022-08-17T03:12:39.218Z,28.42
2022-08-17T03:14:43.530Z,26.35
2022-08-17T03:16:48.197Z,27.70
2022-08-17T03:18:51.933Z,31.40
2022-08-17T03:20:57.368Z,27.88
2022-08-17T03:23:02.971Z,31.83
2022-08-17T03:25:10.688Z,28.73
2022-08-17T03:27:14.200Z,24.63
2022-08-17T03:29:18.020Z,20.63
2022-08-17T03:31:21.397Z,23.25
2022-08-17T03:33:25.773Z,25.05
2022-08-17T03:35:32.142Z,24.60
2022-08-17T03:37:35.790Z,34.50
2022-08-17T03:39:42.092Z,22.60
2022-08-17T03:41:52.994Z,27.25
2022-08-17T03:43:56.078Z,29.85
2022-08-17T03:46:00.392Z,32.95
2022-08-17T03:48:04.546Z,26.70
2022-08-17T03:50:12.459Z,27.38
2022-08-17T03:52:17.899Z,35.28
2022-08-17T03:54:21.480Z,36.55
2022-08-17T03:56:27.240Z,35.72
2022-08-17T03:58:30.713Z,34.65
2022-08-17T04:00:36.850Z,40.50
2022-08-17T04:02:43.155Z,35.88
2022-08-17T04:04:54.287Z,35.20
2022-08-17T04:06:58.681Z,36.55
2022-08-17T04:09:03.062Z,36.70
2022-08-17T04:11:06.164Z,45.00
2022-08-17T04:13:10.327Z,41.00
2022-08-17T04:15:13.637Z,41.40
2022-08-17T04:17:17.785Z,38.40
2022-08-17T04:19:21.939Z,37.75
2022-08-17T04:21:26.277Z,40.90
2022-08-17T04:23:31.620Z,44.50
2022-08-17T04:25:37.016Z,43.00
2022-08-17T04:27:40.674Z,41.10
2022-08-17T04:29:49.964Z,36.97
2022-08-17T04:32:01.582Z,42.83
2022-08-17T04:34:06.814Z,50.47
2022-08-17T04:36:15.148Z,48.60
2022-08-17T04:38:23.091Z,45.92
2022-08-17T04:40:29.263Z,41.63
2022-08-17T04:42:33.669Z,46.33
2022-08-17T04:44:38.549Z,47.50
2022-08-17T04:46:42.653Z,52.50
2022-08-17T04:48:51.066Z,56.88
2022-08-17T04:50:55.544Z,52.10
2022-08-17T04:53:01.592Z,49.20
2022-08-17T04:55:07.556Z,52.58
2022-08-17T04:57:12.745Z,55.92
2022-08-17T04:59:20.669Z,60.17
2022-08-17T05:01:28.130Z,61.25
2022-08-17T05:03:32.514Z,65.95
2022-08-17T05:05:43.543Z,60.90
2022-08-17T05:07:47.772Z,56.25
2022-08-17T05:09:51.789Z,54.25
2022-08-17T05:12:00.841Z,57.38
2022-08-17T05:14:06.169Z,56.45
2022-08-17T05:16:10.496Z,61.13
2022-08-17T05:18:17.128Z,63.75
2022-08-17T05:20:21.382Z,59.60
2022-08-17T05:22:25.223Z,61.70
2022-08-17T05:24:40.774Z,62.10
2022-08-17T05:26:48.654Z,73.47
2022-08-17T05:28:54.790Z,63.25
2022-08-17T05:31:04.098Z,65.78
2022-08-17T05:33:10.327Z,69.40
2022-08-17T05:35:14.844Z,59.40
2022-08-17T05:37:18.577Z,56.97
2022-08-17T05:39:22.204Z,54.13
2022-08-17T05:41:26.093Z,64.75
2022-08-17T05:43:34.133Z,64.20
2022-08-17T05:45:54.358Z,68.75
2022-08-17T05:48:01.357Z,56.67
2022-08-17T05:50:09.562Z,59.63
2022-08-17T05:52:25.617Z,63.00
2022-08-17T05:54:43.178Z,62.45
2022-08-17T05:57:23.740Z,68.65
2022-08-17T05:59:42.007Z,72.45
2022-08-17T06:02:04.034Z,74.80
2022-08-17T06:04:26.764Z,72.05
2022-08-17T06:06:44.590Z,87.30
2022-08-17T06:08:56.633Z,78.10
2022-08-17T06:11:10.263Z,79.30
2022-08-17T06:13:27.708Z,84.70
2022-08-17T06:15:39.759Z,83.22
2022-08-17T06:17:44.032Z,89.57
2022-08-17T06:19:54.445Z,99.35
2022-08-17T06:22:00.213Z,91.00
2022-08-17T06:24:14.537Z,97.65
2022-08-17T06:26:25.911Z,88.93
2022-08-17T06:28:43.442Z,89.20
2022-08-17T06:30:59.150Z,91.80
2022-08-17T06:33:15.587Z,86.10
2022-08-17T06:35:34.096Z,81.45
2022-08-17T06:38:37.178Z,80.38
2022-08-17T06:40:52.411Z,88.47
2022-08-17T06:43:12.686Z,79.30
2022-08-17T06:45:24.502Z,68.10
2022-08-17T06:47:35.293Z,70.38
2022-08-17T06:49:50.534Z,70.72
2022-08-17T06:52:07.919Z,75.53
2022-08-17T06:54:23.304Z,77.75
2022-08-17T06:56:54.362Z,64.13
2022-08-17T06:59:00.027Z,64.32
2022-08-17T07:01:08.210Z,65.28
2022-08-17T07:03:23.032Z,62.65
2022-08-17T07:05:39.418Z,60.53
2022-08-17T07:07:58.971Z,58.15
2022-08-17T07:10:02.722Z,61.15
2022-08-17T07:12:14.666Z,64.60
2022-08-17T07:14:33.224Z,56.65
2022-08-17T07:16:41.489Z,57.28
2022-08-17T07:18:46.903Z,54.03
2022-08-17T07:20:58.133Z,53.83
2022-08-17T07:23:09.710Z,50.78
2022-08-17T07:25:16.264Z,49.90
2022-08-17T07:27:26.892Z,55.58
2022-08-17T07:29:30.784Z,56.10
2022-08-17T07:31:34.592Z,56.10
2022-08-17T07:33:38.261Z,56.13
2022-08-17T07:35:43.974Z,53.03
2022-08-17T07:37:51.739Z,46.17
2022-08-17T07:40:15.526Z,50.85
2022-08-17T07:42:22.202Z,54.50
2022-08-17T07:44:25.238Z,48.92
2022-08-17T07:46:34.061Z,50.05
2022-08-17T07:48:41.128Z,48.03
2022-08-17T07:50:49.475Z,51.72
2022-08-17T07:52:54.533Z,53.88
2022-08-17T07:55:00.042Z,53.95
2022-08-17T07:57:37.632Z,55.22
2022-08-17T07:59:43.867Z,48.17
2022-08-17T08:02:15.058Z,45.92
2022-08-17T08:06:58.856Z,45.55
2022-08-17T08:09:02.414Z,45.22
2022-08-17T08:11:12.321Z,47.40
2022-08-17T08:13:24.438Z,40.90
2022-08-17T08:15:39.491Z,43.07
2022-08-17T08:17:52.971Z,46.35
2022-08-17T08:19:43.812Z,40.80
2022-08-17T08:21:49.584Z,39.50
2022-08-17T08:23:49.022Z,38.35
2022-08-17T08:25:54.670Z,36.33
2022-08-17T08:28:01.046Z,33.15
2022-08-17T08:29:57.005Z,28.33
2022-08-17T08:31:58.894Z,27.65
2022-08-17T08:34:09.357Z,29.85
2022-08-17T08:37:02.085Z,25.88
2022-08-17T08:38:59.440Z,26.92
2022-08-17T08:41:07.396Z,50.30
2022-08-17T08:43:15.054Z,26.30
2022-08-17T08:45:16.058Z,39.15
2022-08-17T08:47:17.407Z,22.92
2022-08-17T08:50:03.470Z,23.87
2022-08-17T08:51:58.342Z,26.35
2022-08-17T08:53:58.582Z,26.23
2022-08-17T08:55:55.766Z,31.92
2022-08-17T08:57:56.687Z,34.58
2022-08-17T09:00:08.630Z,29.38
2022-08-17T09:02:09.973Z,28.45
2022-08-17T09:04:30.129Z,29.25
2022-08-17T09:06:45.318Z,30.58
2022-08-17T09:08:58.850Z,36.22
2022-08-17T09:10:59.626Z,34.78
2022-08-17T09:13:09.505Z,28.73
2022-08-17T09:15:12.934Z,36.15
2022-08-17T09:17:10.767Z,35.03
2022-08-17T09:19:15.369Z,29.92
2022-08-17T09:21:14.179Z,32.03
2022-08-17T09:23:25.709Z,31.38
2022-08-17T09:25:21.156Z,28.08
2022-08-17T09:27:16.825Z,32.72
2022-08-17T09:29:13.309Z,33.97
2022-08-17T09:31:10.255Z,32.92
2022-08-17T09:33:07.471Z,34.90
2022-08-17T09:35:05.589Z,37.38
2022-08-17T09:37:19.880Z,32.55
2022-08-17T09:39:17.094Z,33.28
2022-08-17T09:41:17.460Z,30.02
2022-08-17T09:43:20.286Z,29.90
2022-08-17T09:45:26.440Z,31.20
2022-08-17T09:47:27.690Z,37.63
2022-08-17T09:49:29.102Z,31.15
2022-08-17T09:51:28.457Z,34.33
2022-08-17T09:53:19.261Z,35.83
2022-08-17T09:55:10.114Z,39.55
2022-08-17T09:57:29.103Z,36.95
2022-08-17T09:59:44.787Z,36.80
2022-08-17T10:01:41.898Z,36.47
2022-08-17T10:04:02.557Z,35.08
2022-08-17T10:06:02.465Z,31.67
2022-08-17T10:08:05.982Z,35.13
2022-08-17T10:10:04.356Z,33.20
2022-08-17T10:12:02.621Z,31.02
2022-08-17T10:14:01.673Z,33.20
2022-08-17T10:16:25.542Z,40.13
2022-08-17T10:18:33.423Z,30.60
2022-08-17T10:20:31.444Z,34.25
2022-08-17T10:22:37.961Z,37.28
2022-08-17T10:24:36.323Z,31.98
2022-08-17T10:26:46.332Z,33.13
2022-08-17T10:28:51.776Z,34.28
2022-08-17T10:30:50.368Z,36.67
2022-08-17T10:32:49.718Z,35.58
2022-08-17T10:35:43.869Z,30.48
2022-08-17T10:38:34.437Z,31.77
2022-08-17T10:40:36.883Z,29.63
2022-08-17T10:42:33.852Z,27.30
2022-08-17T10:44:38.632Z,27.23
2022-08-17T10:46:55.575Z,23.73
2022-08-17T10:49:06.236Z,24.65
2022-08-17T10:53:53.202Z,23.73
2022-08-17T10:56:21.799Z,22.23
2022-08-17T10:58:21.517Z,20.70
2022-08-17T11:00:58.436Z,19.75
2022-08-17T11:02:51.795Z,22.55
2022-08-17T11:05:08.577Z,20.15
2022-08-17T11:07:13.528Z,21.60
2022-08-17T11:09:26.835Z,24.13
2022-08-17T11:11:45.019Z,22.70
2022-08-17T11:13:45.543Z,21.05
2022-08-17T11:15:56.600Z,28.17
2022-08-17T11:18:23.947Z,22.33
2022-08-17T11:20:46.368Z,26.50
2022-08-17T11:23:08.724Z,26.17
2022-08-17T11:25:14.964Z,22.77
2022-08-17T11:27:25.905Z,30.58
2022-08-17T11:29:24.577Z,28.25
2022-08-17T11:31:38.053Z,26.33
2022-08-17T11:33:56.414Z,27.60
2022-08-17T11:35:53.920Z,33.17
2022-08-17T11:38:01.303Z,30.02
2022-08-17T11:40:27.678Z,31.50
2022-08-17T11:42:37.231Z,31.65
2022-08-17T11:44:46.710Z,31.77
2022-08-17T11:47:01.876Z,32.10
2022-08-17T11:49:03.327Z,33.88
2022-08-17T11:51:00.305Z,36.75
2022-08-17T11:52:51.490Z,42.08
2022-08-17T11:54:46.882Z,36.33
2022-08-17T11:56:45.737Z,34.55
2022-08-17T11:58:40.867Z,36.00
2022-08-17T12:00:51.282Z,39.25
2022-08-17T12:02:47.847Z,39.00
2022-08-17T12:05:12.317Z,36.35
2022-08-17T12:07:10.955Z,35.63
2022-08-17T12:09:10.483Z,36.25
2022-08-17T12:11:09.731Z,38.25
2022-08-17T12:13:10.140Z,37.17
2022-08-17T12:15:10.568Z,39.35
2022-08-17T12:17:06.557Z,41.63
2022-08-17T12:19:00.565Z,41.72
2022-08-17T12:21:22.275Z,43.58
2022-08-17T12:23:23.569Z,42.38
2022-08-17T12:25:21.218Z,40.70
2022-08-17T12:27:19.189Z,44.88
2022-08-17T12:29:38.377Z,45.35
2022-08-17T12:31:35.639Z,44.40
2022-08-17T12:33:28.101Z,42.97
2022-08-17T12:35:25.479Z,44.25
2022-08-17T12:37:19.770Z,50.75
2022-08-17T12:39:14.480Z,50.38
2022-08-17T12:41:08.997Z,42.70
2022-08-17T12:43:02.931Z,45.25
2022-08-17T12:44:53.831Z,50.30
2022-08-17T12:46:54.326Z,45.10
2022-08-17T12:48:55.117Z,46.38
2022-08-17T12:50:51.693Z,49.75
2022-08-17T12:52:43.537Z,52.22
2022-08-17T12:54:55.589Z,46.83
2022-08-17T12:56:47.802Z,47.88
2022-08-17T12:58:48.635Z,47.13
2022-08-17T13:00:47.476Z,48.17
2022-08-17T13:02:45.191Z,53.97
2022-08-17T13:04:39.819Z,50.03
2022-08-17T13:06:34.517Z,43.75
2022-08-17T13:08:31.102Z,52.42
2022-08-17T13:10:32.120Z,46.90
2022-08-17T13:12:32.666Z,51.78
2022-08-17T13:14:23.292Z,46.72
2022-08-17T13:16:18.839Z,46.10
2022-08-17T13:18:40.284Z,55.70
2022-08-17T13:20:32.272Z,48.03
2022-08-17T13:24:20.403Z,44.97
2022-08-17T13:26:16.367Z,39.25
2022-08-17T13:28:18.293Z,43.28
2022-08-17T13:30:26.001Z,42.92
2022-08-17T13:32:20.789Z,50.50
2022-08-17T13:34:19.622Z,47.65
2022-08-17T13:36:11.192Z,47.17
2022-08-17T13:38:14.718Z,47.78
2022-08-17T13:40:30.528Z,50.50
2022-08-17T13:42:33.848Z,49.22
2022-08-17T13:44:42.974Z,45.60
2022-08-17T13:46:34.766Z,44.90
2022-08-17T13:48:30.061Z,40.63
2022-08-17T13:50:22.343Z,46.47
2022-08-17T13:52:35.946Z,41.83
2022-08-17T13:54:34.135Z,46.17
2022-08-17T13:56:38.790Z,46.17
2022-08-17T13:58:37.233Z,44.13
2022-08-17T14:00:31.888Z,40.90
2022-08-17T14:02:27.508Z,44.28
2022-08-17T14:04:23.166Z,42.08
2022-08-17T14:06:23.699Z,40.15
2022-08-17T14:08:25.913Z,43.80
2022-08-17T14:10:18.224Z,45.50
2022-08-17T14:12:12.299Z,44.08
2022-08-17T14:14:03.162Z,44.50
2022-08-17T14:15:56.814Z,39.50
2022-08-17T14:17:47.923Z,39.13
2022-08-17T14:19:38.792Z,39.17
2022-08-17T14:21:31.059Z,39.88
2022-08-17T14:23:21.502Z,35.08
2022-08-17T14:25:15.198Z,38.75
2022-08-17T14:27:07.610Z,40.35
2022-08-17T14:28:58.431Z,35.78
2022-08-17T14:30:51.317Z,38.22
2022-08-17T14:32:44.302Z,39.38
2022-08-17T14:34:35.672Z,35.20
2022-08-17T14:36:27.077Z,34.20
2022-08-17T14:38:19.766Z,38.08
2022-08-17T14:40:13.517Z,38.47
2022-08-17T14:42:08.120Z,38.35
2022-08-17T14:43:59.855Z,34.95
2022-08-17T14:45:51.659Z,41.55
2022-08-17T14:47:43.229Z,31.42
2022-08-17T14:49:34.601Z,35.13
2022-08-17T14:51:28.349Z,37.85
2022-08-17T14:53:20.417Z,34.80
2022-08-17T14:55:11.633Z,34.22
2022-08-17T14:57:22.617Z,41.15
2022-08-17T14:59:14.763Z,35.67
2022-08-17T15:01:08.824Z,34.92
2022-08-17T15:03:02.830Z,38.25
2022-08-17T15:04:54.117Z,35.83
2022-08-17T15:06:47.633Z,30.98
2022-08-17T15:08:42.435Z,34.58
2022-08-17T15:10:38.740Z,31.63
2022-08-17T15:12:34.335Z,31.35
2022-08-17T15:14:29.694Z,33.50
2022-08-17T15:16:20.878Z,36.17
2022-08-17T15:18:11.800Z,31.30
2022-08-17T15:20:03.725Z,25.27
2022-08-17T15:21:54.620Z,27.52
2022-08-17T15:23:46.915Z,28.63
2022-08-17T15:27:32.420Z,24.15
2022-08-17T15:29:24.229Z,22.40
2022-08-17T15:31:15.051Z,24.30
2022-08-17T15:33:05.698Z,21.25
2022-08-17T15:34:58.945Z,27.50
2022-08-17T15:36:49.753Z,25.50
2022-08-17T15:38:41.412Z,25.63
2022-08-17T15:40:38.398Z,23.90
2022-08-17T15:42:29.242Z,27.48
2022-08-17T15:44:32.457Z,27.83
2022-08-17T15:46:28.167Z,25.77
2022-08-17T15:48:18.970Z,30.35
2022-08-17T15:50:10.771Z,22.00
2022-08-17T15:52:13.935Z,25.23
2022-08-17T15:54:22.219Z,26.83
2022-08-17T15:56:15.623Z,25.95
2022-08-17T15:58:06.282Z,21.20
2022-08-17T15:59:59.020Z,26.10
2022-08-17T16:03:01.512Z,24.77
2022-08-17T16:04:06.809Z,26.20
2022-08-17T16:05:58.917Z,27.90
2022-08-17T16:09:41.851Z,24.58
2022-08-17T16:11:33.857Z,24.33
2022-08-17T16:13:24.945Z,26.20
2022-08-17T16:15:17.763Z,24.27
2022-08-17T16:17:38.918Z,22.33
2022-08-17T16:19:19.397Z,21.40
2022-08-17T16:21:15.463Z,26.00
2022-08-17T16:23:06.652Z,24.35
2022-08-17T16:24:58.518Z,20.52
2022-08-17T16:26:51.358Z,22.48
2022-08-17T16:28:42.722Z,23.23
2022-08-17T16:30:33.691Z,22.58
2022-08-17T16:32:31.478Z,21.75
2022-08-17T16:34:24.019Z,21.25
2022-08-17T16:36:14.544Z,20.75
2022-08-17T16:38:05.559Z,23.27
2022-08-17T16:39:58.519Z,24.83
2022-08-17T16:41:50.799Z,22.67
2022-08-17T16:45:32.352Z,26.35
2022-08-17T16:47:23.797Z,31.80
2022-08-17T16:49:23.231Z,27.93
2022-08-17T16:51:27.028Z,27.33
2022-08-17T16:53:20.207Z,27.52
2022-08-17T16:55:13.216Z,28.13
2022-08-17T16:57:05.753Z,28.42
2022-08-17T17:00:47.307Z,28.55
2022-08-17T17:02:41.314Z,26.17
2022-08-17T17:04:35.149Z,25.75
2022-08-17T17:06:39.618Z,30.17
2022-08-17T17:08:38.428Z,28.58
2022-08-17T17:10:39.349Z,30.35
2022-08-17T17:12:58.156Z,28.48
2022-08-17T17:16:44.160Z,32.47
2022-08-17T17:18:42.150Z,28.25
2022-08-17T17:20:42.414Z,30.17
2022-08-17T17:22:43.856Z,26.50
2022-08-17T17:24:49.585Z,29.92
2022-08-17T17:27:15.695Z,27.73
2022-08-17T17:29:29.675Z,29.58
2022-08-17T17:31:55.151Z,32.03
2022-08-17T17:33:50.080Z,31.23
2022-08-17T17:35:50.685Z,30.02
2022-08-17T17:37:44.766Z,28.98
2022-08-17T17:39:41.074Z,29.05
2022-08-17T17:41:43.498Z,28.63
2022-08-17T17:43:39.548Z,27.35
2022-08-17T17:45:40.559Z,35.03
2022-08-17T17:47:31.835Z,31.40
2022-08-17T17:49:23.313Z,36.58
2022-08-17T17:52:06.361Z,34.25
2022-08-17T17:53:55.915Z,36.42
2022-08-17T17:56:18.757Z,34.35
2022-08-17T17:58:44.091Z,35.92
2022-08-17T18:00:43.979Z,34.15
2022-08-17T18:02:51.594Z,43.88
2022-08-17T18:04:58.520Z,41.30
2022-08-17T18:07:06.259Z,34.28
2022-08-17T18:09:19.225Z,42.00
2022-08-17T18:11:26.849Z,36.38
2022-08-17T18:13:40.485Z,36.75
2022-08-17T18:15:42.855Z,40.03
2022-08-17T18:17:33.667Z,38.28
2022-08-17T18:19:27.323Z,41.55
2022-08-17T18:21:23.622Z,41.35
2022-08-17T18:23:14.429Z,38.78
2022-08-17T18:25:44.063Z,42.13
2022-08-17T18:27:38.670Z,36.28
2022-08-17T18:29:42.620Z,34.70
2022-08-17T18:31:33.645Z,39.55
2022-08-17T18:33:25.618Z,39.42
2022-08-17T18:35:32.102Z,35.67
2022-08-17T18:37:44.290Z,36.13
2022-08-17T18:39:35.572Z,35.30
2022-08-17T18:41:27.774Z,37.72
2022-08-17T18:43:27.470Z,35.92
2022-08-17T18:45:34.211Z,35.47
2022-08-17T18:47:28.114Z,37.28
2022-08-17T18:49:29.102Z,34.08
2022-08-17T18:51:40.451Z,33.75
2022-08-17T18:53:38.285Z,44.78
2022-08-17T18:55:29.016Z,41.97
2022-08-17T18:57:32.360Z,32.92
2022-08-17T18:59:40.447Z,30.98
2022-08-17T19:01:53.635Z,29.42
2022-08-17T19:03:46.781Z,38.38
2022-08-17T19:05:40.943Z,30.60
2022-08-17T19:07:34.246Z,30.70
2022-08-17T19:09:32.892Z,32.47
2022-08-17T19:11:29.432Z,29.48
2022-08-17T19:13:28.190Z,30.10
2022-08-17T19:15:26.625Z,27.20
2022-08-17T19:17:26.541Z,31.67
2022-08-17T19:19:26.005Z,28.27
2022-08-17T19:21:23.033Z,30.35
2022-08-17T19:23:22.546Z,28.27
2022-08-17T19:25:18.927Z,24.90
2022-08-17T19:27:20.963Z,31.88
2022-08-17T19:29:19.510Z,25.40
2022-08-17T19:31:20.096Z,27.10
2022-08-17T19:33:10.834Z,26.60
2022-08-17T19:35:06.220Z,25.92
2022-08-17T19:37:02.728Z,23.63
2022-08-17T19:39:03.626Z,23.45
2022-08-17T19:41:07.153Z,28.42
2022-08-17T19:43:08.961Z,26.00
2022-08-17T19:45:19.101Z,22.98
2022-08-17T19:47:43.131Z,24.13
2022-08-17T19:49:54.610Z,19.52
2022-08-17T19:51:51.799Z,24.88
2022-08-17T19:54:07.374Z,24.30
2022-08-17T19:56:08.134Z,26.92
2022-08-17T19:58:06.980Z,23.00
2022-08-17T20:00:07.449Z,21.40
2022-08-17T20:02:03.848Z,21.08
2022-08-17T20:04:06.279Z,18.05
2022-08-17T20:06:12.513Z,21.70
2022-08-17T20:08:08.247Z,25.42
2022-08-17T20:10:05.729Z,22.65
2022-08-17T20:12:03.342Z,18.70
2022-08-17T20:14:00.421Z,21.25
2022-08-17T20:15:52.273Z,20.25
2022-08-17T20:17:46.104Z,18.70
2022-08-17T20:19:49.742Z,17.50
2022-08-17T20:21:48.445Z,18.33
2022-08-17T20:23:51.252Z,19.20
2022-08-17T20:25:47.615Z,18.13
2022-08-17T20:27:52.557Z,20.38
2022-08-17T20:30:05.470Z,17.25
2022-08-17T20:34:37.083Z,19.25
2022-08-17T20:36:28.521Z,15.75
2022-08-17T20:38:41.135Z,18.45
2022-08-17T20:40:36.536Z,20.95
2022-08-17T20:42:32.609Z,18.92
2022-08-17T20:44:33.410Z,22.52
2022-08-17T20:46:48.917Z,21.83
2022-08-17T20:48:46.510Z,21.92
2022-08-17T20:50:41.883Z,18.85
2022-08-17T20:52:55.166Z,17.13
2022-08-17T20:54:51.815Z,18.70
2022-08-17T20:56:55.446Z,21.42
2022-08-17T20:58:47.347Z,19.30
2022-08-17T21:02:34.384Z,18.23
2022-08-17T21:04:57.477Z,20.38
2022-08-17T21:07:27.714Z,19.67
2022-08-17T21:09:29.713Z,20.50
2022-08-17T21:12:03.155Z,17.73
2022-08-17T21:14:08.326Z,23.55
2022-08-17T21:16:08.357Z,16.52
2022-08-17T21:18:08.332Z,17.42
2022-08-17T21:20:13.565Z,15.93
2022-08-17T21:22:21.999Z,24.60
2022-08-17T21:24:31.836Z,22.15
2022-08-17T21:26:30.908Z,17.95
2022-08-17T21:28:33.968Z,16.83
2022-08-17T21:30:52.094Z,18.25
2022-08-17T21:33:24.948Z,18.27
2022-08-17T21:35:28.764Z,19.83
2022-08-17T21:37:32.959Z,18.10
2022-08-17T21:39:39.047Z,16.48
2022-08-17T21:41:33.657Z,18.48
2022-08-17T21:43:29.132Z,16.75
2022-08-17T21:45:24.098Z,15.85
2022-08-17T21:47:21.957Z,16.48
2022-08-17T21:49:16.737Z,13.63
2022-08-17T21:51:19.329Z,17.52
2022-08-17T21:53:15.669Z,20.67
2022-08-17T21:55:18.593Z,19.25
2022-08-17T21:57:19.041Z,15.10
2022-08-17T21:59:24.989Z,16.40
2022-08-17T22:01:26.495Z,14.23
2022-08-17T22:03:25.008Z,16.52
2022-08-17T22:05:15.778Z,20.83
2022-08-17T22:07:12.375Z,17.27
2022-08-17T22:09:18.750Z,19.30
2022-08-17T22:11:09.326Z,16.88
2022-08-17T22:13:06.252Z,18.17
2022-08-17T22:15:15.409Z,17.65
2022-08-17T22:17:15.349Z,21.65
2022-08-17T22:19:05.917Z,22.42
2022-08-17T22:21:02.038Z,20.25
2022-08-17T22:23:13.390Z,17.80
2022-08-17T22:25:19.662Z,16.95
2022-08-17T22:27:12.270Z,18.42
2022-08-17T22:29:03.225Z,17.50
2022-08-17T22:31:01.185Z,17.10
2022-08-17T22:32:51.900Z,15.95
2022-08-17T22:34:42.957Z,23.65
2022-08-17T22:36:35.205Z,19.70
2022-08-17T22:38:32.092Z,19.40
2022-08-17T22:40:30.151Z,16.00
2022-08-17T22:42:21.519Z,19.17
2022-08-17T22:44:26.186Z,17.90
2022-08-17T22:46:22.930Z,17.25
2022-08-17T22:48:18.104Z,18.65
2022-08-17T22:50:22.718Z,21.33
2022-08-17T22:52:32.414Z,15.95
2022-08-17T22:54:27.537Z,19.20
2022-08-17T22:56:23.374Z,17.95
2022-08-17T22:58:21.210Z,17.98
2022-08-17T23:00:29.226Z,19.73
2022-08-17T23:02:24.929Z,20.20
2022-08-17T23:04:35.659Z,21.13
2022-08-17T23:06:26.638Z,16.40
2022-08-17T23:08:18.306Z,20.45
2022-08-17T23:10:11.843Z,19.52
2022-08-17T23:12:07.351Z,17.50
2022-08-17T23:13:58.159Z,17.52
2022-08-17T23:15:50.932Z,18.25
2022-08-17T23:17:42.691Z,19.10
2022-08-17T23:19:36.315Z,18.33
2022-08-17T23:21:28.353Z,20.38
2022-08-17T23:23:23.451Z,19.90
2022-08-17T23:25:24.691Z,20.20
2022-08-17T23:27:16.318Z,17.27
2022-08-17T23:29:07.517Z,22.97
2022-08-17T23:30:58.319Z,22.43
2022-08-17T23:32:53.872Z,22.90
2022-08-17T23:34:46.278Z,21.80
2022-08-17T23:38:28.427Z,21.25
2022-08-17T23:40:34.412Z,22.17
2022-08-17T23:42:43.667Z,23.45
2022-08-17T23:44:49.369Z,24.20
2022-08-17T23:46:53.962Z,22.13
2022-08-17T23:48:57.852Z,22.05
2022-08-17T23:51:04.255Z,22.55
2022-08-17T23:53:07.932Z,20.13
2022-08-17T23:54:58.837Z,21.98
2022-08-17T23:57:04.507Z,27.77
2022-08-17T23:59:08.527Z,24.58
